sensor_id;sensor_type;location;lat;lon;timestamp;temperature;humidity
44170;DHT22;29836;52.286;9.576;2024-02-04T00:02:22;8.50;99.90
44170;DHT22;29836;52.286;9.576;2024-02-04T00:04:50;8.50;99.90
44170;DHT22;29836;52.286;9.576;2024-02-04T00:07:16;8.50;99.90
44170;DHT22;29836;52.286;9.576;2024-02-04T00:09:42;8.50;99.90
44170;DHT22;29836;52.286;9.576;2024-02-04T00:12:09;8.40;99.90
44170;DHT22;29836;52.286;9.576;2024-02-04T00:14:35;8.40;99.90
44170;DHT22;29836;52.286;9.576;2024-02-04T00:17:01;8.30;99.90
44170;DHT22;29836;52.286;9.576;2024-02-04T00:19:26;8.30;99.90
44170;DHT22;29836;52.286;9.576;2024-02-04T00:21:52;8.20;99.90
44170;DHT22;29836;52.286;9.576;2024-02-04T00:24:18;8.20;99.90
44170;DHT22;29836;52.286;9.576;2024-02-04T00:26:46;8.10;99.90
44170;DHT22;29836;52.286;9.576;2024-02-04T00:29:12;8.10;99.90
44170;DHT22;29836;52.286;9.576;2024-02-04T00:31:37;8.00;99.90
44170;DHT22;29836;52.286;9.576;2024-02-04T00:34:03;8.00;99.90
44170;DHT22;29836;52.286;9.576;2024-02-04T00:36:30;7.90;99.90
44170;DHT22;29836;52.286;9.576;2024-02-04T00:38:55;7.80;99.90
44170;DHT22;29836;52.286;9.576;2024-02-04T00:41:21;7.80;99.90
44170;DHT22;29836;52.286;9.576;2024-02-04T00:43:46;7.70;99.90
44170;DHT22;29836;52.286;9.576;2024-02-04T00:46:12;7.60;99.90
44170;DHT22;29836;52.286;9.576;2024-02-04T00:48:38;7.60;99.90
44170;DHT22;29836;52.286;9.576;2024-02-04T00:51:06;7.60;99.90
44170;DHT22;29836;52.286;9.576;2024-02-04T00:53:32;7.70;99.90
44170;DHT22;29836;52.286;9.576;2024-02-04T00:56:03;7.80;99.90
44170;DHT22;29836;52.286;9.576;2024-02-04T00:58:29;7.80;99.90
44170;DHT22;29836;52.286;9.576;2024-02-04T01:00:55;7.80;99.90
44170;DHT22;29836;52.286;9.576;2024-02-04T01:03:20;7.80;99.90
44170;DHT22;29836;52.286;9.576;2024-02-04T01:05:46;7.60;99.90
44170;DHT22;29836;52.286;9.576;2024-02-04T01:08:12;7.60;99.90
44170;DHT22;29836;52.286;9.576;2024-02-04T01:10:37;7.50;99.90
44170;DHT22;29836;52.286;9.576;2024-02-04T01:13:04;7.60;99.90
44170;DHT22;29836;52.286;9.576;2024-02-04T01:15:29;7.60;99.90
44170;DHT22;29836;52.286;9.576;2024-02-04T01:17:55;7.70;99.90
44170;DHT22;29836;52.286;9.576;2024-02-04T01:20:20;7.70;99.90
44170;DHT22;29836;52.286;9.576;2024-02-04T01:22:46;7.70;99.90
44170;DHT22;29836;52.286;9.576;2024-02-04T01:25:11;7.70;99.90
44170;DHT22;29836;52.286;9.576;2024-02-04T01:27:37;7.60;99.90
44170;DHT22;29836;52.286;9.576;2024-02-04T01:30:03;7.70;99.90
44170;DHT22;29836;52.286;9.576;2024-02-04T01:32:29;7.70;99.90
44170;DHT22;29836;52.286;9.576;2024-02-04T01:34:54;7.80;99.90
44170;DHT22;29836;52.286;9.576;2024-02-04T01:37:20;8.00;99.90
44170;DHT22;29836;52.286;9.576;2024-02-04T01:39:45;8.20;99.90
44170;DHT22;29836;52.286;9.576;2024-02-04T01:42:11;8.20;99.90
44170;DHT22;29836;52.286;9.576;2024-02-04T01:44:36;8.30;99.90
44170;DHT22;29836;52.286;9.576;2024-02-04T01:47:02;8.30;99.90
44170;DHT22;29836;52.286;9.576;2024-02-04T01:49:28;8.30;99.90
44170;DHT22;29836;52.286;9.576;2024-02-04T01:51:55;8.40;99.90
44170;DHT22;29836;52.286;9.576;2024-02-04T01:54:22;8.40;99.90
44170;DHT22;29836;52.286;9.576;2024-02-04T01:56:52;8.50;99.90
44170;DHT22;29836;52.286;9.576;2024-02-04T01:59:23;8.50;99.90
44170;DHT22;29836;52.286;9.576;2024-02-04T02:01:53;8.50;99.90
44170;DHT22;29836;52.286;9.576;2024-02-04T02:04:19;8.50;99.90
44170;DHT22;29836;52.286;9.576;2024-02-04T02:06:45;8.50;99.90
44170;DHT22;29836;52.286;9.576;2024-02-04T02:09:12;8.50;99.90
44170;DHT22;29836;52.286;9.576;2024-02-04T02:11:41;8.50;99.90
44170;DHT22;29836;52.286;9.576;2024-02-04T02:14:16;8.60;99.90
44170;DHT22;29836;52.286;9.576;2024-02-04T02:16:45;8.60;99.90
44170;DHT22;29836;52.286;9.576;2024-02-04T02:19:40;8.60;99.90
44170;DHT22;29836;52.286;9.576;2024-02-04T02:24:57;8.60;99.90
44170;DHT22;29836;52.286;9.576;2024-02-04T02:27:24;8.50;99.90
44170;DHT22;29836;52.286;9.576;2024-02-04T02:29:49;8.50;99.90
44170;DHT22;29836;52.286;9.576;2024-02-04T02:32:15;8.50;99.90
44170;DHT22;29836;52.286;9.576;2024-02-04T02:34:41;8.50;99.90
44170;DHT22;29836;52.286;9.576;2024-02-04T02:37:16;8.40;99.90
44170;DHT22;29836;52.286;9.576;2024-02-04T02:39:50;8.40;99.90
44170;DHT22;29836;52.286;9.576;2024-02-04T02:42:18;8.40;99.90
44170;DHT22;29836;52.286;9.576;2024-02-04T02:44:45;8.50;99.90
44170;DHT22;29836;52.286;9.576;2024-02-04T02:47:11;8.50;99.90
44170;DHT22;29836;52.286;9.576;2024-02-04T02:49:38;8.50;99.90
44170;DHT22;29836;52.286;9.576;2024-02-04T02:52:03;8.50;99.90
44170;DHT22;29836;52.286;9.576;2024-02-04T02:54:29;8.40;99.90
44170;DHT22;29836;52.286;9.576;2024-02-04T02:56:55;8.40;99.90
44170;DHT22;29836;52.286;9.576;2024-02-04T02:59:20;8.40;99.90
44170;DHT22;29836;52.286;9.576;2024-02-04T03:01:46;8.40;99.90
44170;DHT22;29836;52.286;9.576;2024-02-04T03:04:11;8.40;99.90
44170;DHT22;29836;52.286;9.576;2024-02-04T03:06:37;8.30;99.90
44170;DHT22;29836;52.286;9.576;2024-02-04T03:09:02;8.20;99.90
44170;DHT22;29836;52.286;9.576;2024-02-04T03:11:28;8.20;99.90
44170;DHT22;29836;52.286;9.576;2024-02-04T03:13:53;8.20;99.90
44170;DHT22;29836;52.286;9.576;2024-02-04T03:16:19;8.20;99.90
44170;DHT22;29836;52.286;9.576;2024-02-04T03:18:45;8.10;99.90
44170;DHT22;29836;52.286;9.576;2024-02-04T03:21:14;8.10;99.90
44170;DHT22;29836;52.286;9.576;2024-02-04T03:23:41;8.10;99.90
44170;DHT22;29836;52.286;9.576;2024-02-04T03:26:08;8.10;99.90
44170;DHT22;29836;52.286;9.576;2024-02-04T03:28:33;8.10;99.90
44170;DHT22;29836;52.286;9.576;2024-02-04T03:30:59;8.20;99.90
44170;DHT22;29836;52.286;9.576;2024-02-04T03:33:24;8.20;99.90
44170;DHT22;29836;52.286;9.576;2024-02-04T03:35:50;8.20;99.90
44170;DHT22;29836;52.286;9.576;2024-02-04T03:38:15;8.30;99.90
44170;DHT22;29836;52.286;9.576;2024-02-04T03:40:41;8.30;99.90
44170;DHT22;29836;52.286;9.576;2024-02-04T03:43:08;8.30;99.90
44170;DHT22;29836;52.286;9.576;2024-02-04T03:45:35;8.30;99.90
44170;DHT22;29836;52.286;9.576;2024-02-04T03:48:01;8.40;99.90
44170;DHT22;29836;52.286;9.576;2024-02-04T03:50:26;8.40;99.90
44170;DHT22;29836;52.286;9.576;2024-02-04T03:52:52;8.40;99.90
44170;DHT22;29836;52.286;9.576;2024-02-04T03:55:18;8.50;99.90
44170;DHT22;29836;52.286;9.576;2024-02-04T03:57:44;8.50;99.90
44170;DHT22;29836;52.286;9.576;2024-02-04T04:00:10;8.50;99.90
44170;DHT22;29836;52.286;9.576;2024-02-04T04:02:36;8.50;99.90
44170;DHT22;29836;52.286;9.576;2024-02-04T04:05:01;8.50;99.90
44170;DHT22;29836;52.286;9.576;2024-02-04T04:07:27;8.40;99.90
44170;DHT22;29836;52.286;9.576;2024-02-04T04:09:52;8.40;99.90
44170;DHT22;29836;52.286;9.576;2024-02-04T04:12:18;8.40;99.90
44170;DHT22;29836;52.286;9.576;2024-02-04T04:14:43;8.40;99.90
44170;DHT22;29836;52.286;9.576;2024-02-04T04:17:09;8.40;99.90
44170;DHT22;29836;52.286;9.576;2024-02-04T04:19:34;8.50;99.90
44170;DHT22;29836;52.286;9.576;2024-02-04T04:22:02;8.50;99.90
44170;DHT22;29836;52.286;9.576;2024-02-04T04:24:28;8.40;99.90
44170;DHT22;29836;52.286;9.576;2024-02-04T04:26:54;8.40;99.90
44170;DHT22;29836;52.286;9.576;2024-02-04T04:29:20;8.30;99.90
44170;DHT22;29836;52.286;9.576;2024-02-04T04:31:45;8.20;99.90
44170;DHT22;29836;52.286;9.576;2024-02-04T04:34:11;8.20;99.90
44170;DHT22;29836;52.286;9.576;2024-02-04T04:36:37;8.20;99.90
44170;DHT22;29836;52.286;9.576;2024-02-04T04:39:02;8.20;99.90
44170;DHT22;29836;52.286;9.576;2024-02-04T04:41:28;8.20;99.90
44170;DHT22;29836;52.286;9.576;2024-02-04T04:43:53;8.20;99.90
44170;DHT22;29836;52.286;9.576;2024-02-04T04:46:19;8.20;99.90
44170;DHT22;29836;52.286;9.576;2024-02-04T04:48:45;8.10;99.90
44170;DHT22;29836;52.286;9.576;2024-02-04T04:51:11;8.20;99.90
44170;DHT22;29836;52.286;9.576;2024-02-04T04:53:37;8.20;99.90
44170;DHT22;29836;52.286;9.576;2024-02-04T04:56:03;8.20;99.90
44170;DHT22;29836;52.286;9.576;2024-02-04T04:58:29;8.20;99.90
44170;DHT22;29836;52.286;9.576;2024-02-04T05:00:54;8.20;99.90
44170;DHT22;29836;52.286;9.576;2024-02-04T05:03:21;8.20;99.90
44170;DHT22;29836;52.286;9.576;2024-02-04T05:05:59;8.20;99.90
44170;DHT22;29836;52.286;9.576;2024-02-04T05:08:26;8.20;99.90
44170;DHT22;29836;52.286;9.576;2024-02-04T05:10:52;8.30;99.90
44170;DHT22;29836;52.286;9.576;2024-02-04T05:13:17;8.40;99.90
44170;DHT22;29836;52.286;9.576;2024-02-04T05:15:43;8.40;99.90
44170;DHT22;29836;52.286;9.576;2024-02-04T05:18:08;8.40;99.90
44170;DHT22;29836;52.286;9.576;2024-02-04T05:20:34;8.40;99.90
44170;DHT22;29836;52.286;9.576;2024-02-04T05:23:00;8.40;99.90
44170;DHT22;29836;52.286;9.576;2024-02-04T05:25:25;8.50;99.90
44170;DHT22;29836;52.286;9.576;2024-02-04T05:27:51;8.40;99.90
44170;DHT22;29836;52.286;9.576;2024-02-04T05:30:17;8.30;99.90
44170;DHT22;29836;52.286;9.576;2024-02-04T05:32:43;8.20;99.90
44170;DHT22;29836;52.286;9.576;2024-02-04T05:35:10;8.30;99.90
44170;DHT22;29836;52.286;9.576;2024-02-04T05:37:36;8.10;99.90
44170;DHT22;29836;52.286;9.576;2024-02-04T05:40:02;8.10;99.90
44170;DHT22;29836;52.286;9.576;2024-02-04T05:42:28;8.20;99.90
44170;DHT22;29836;52.286;9.576;2024-02-04T05:44:53;8.10;99.90
44170;DHT22;29836;52.286;9.576;2024-02-04T05:47:19;8.20;99.90
44170;DHT22;29836;52.286;9.576;2024-02-04T05:49:44;8.10;99.90
44170;DHT22;29836;52.286;9.576;2024-02-04T05:52:10;8.20;99.90
44170;DHT22;29836;52.286;9.576;2024-02-04T05:54:38;8.20;99.90
44170;DHT22;29836;52.286;9.576;2024-02-04T05:57:04;8.20;99.90
44170;DHT22;29836;52.286;9.576;2024-02-04T05:59:30;8.30;99.90
44170;DHT22;29836;52.286;9.576;2024-02-04T06:01:56;8.30;99.90
44170;DHT22;29836;52.286;9.576;2024-02-04T06:04:21;8.30;99.90
44170;DHT22;29836;52.286;9.576;2024-02-04T06:06:47;8.30;99.90
44170;DHT22;29836;52.286;9.576;2024-02-04T06:09:13;8.30;99.90
44170;DHT22;29836;52.286;9.576;2024-02-04T06:11:39;8.30;99.90
44170;DHT22;29836;52.286;9.576;2024-02-04T06:14:04;8.30;99.90
44170;DHT22;29836;52.286;9.576;2024-02-04T06:16:30;8.30;99.90
44170;DHT22;29836;52.286;9.576;2024-02-04T06:18:56;8.30;99.90
44170;DHT22;29836;52.286;9.576;2024-02-04T06:21:23;8.30;99.90
44170;DHT22;29836;52.286;9.576;2024-02-04T06:23:48;8.20;99.90
44170;DHT22;29836;52.286;9.576;2024-02-04T06:26:14;8.20;99.90
44170;DHT22;29836;52.286;9.576;2024-02-04T06:28:39;8.20;99.90
44170;DHT22;29836;52.286;9.576;2024-02-04T06:31:08;8.20;99.90
44170;DHT22;29836;52.286;9.576;2024-02-04T06:33:34;8.20;99.90
44170;DHT22;29836;52.286;9.576;2024-02-04T06:35:59;8.20;99.90
44170;DHT22;29836;52.286;9.576;2024-02-04T06:38:25;8.20;99.90
44170;DHT22;29836;52.286;9.576;2024-02-04T06:40:50;8.20;99.90
44170;DHT22;29836;52.286;9.576;2024-02-04T06:43:16;8.20;99.90
44170;DHT22;29836;52.286;9.576;2024-02-04T06:45:41;8.20;99.90
44170;DHT22;29836;52.286;9.576;2024-02-04T06:48:07;8.20;99.90
44170;DHT22;29836;52.286;9.576;2024-02-04T06:50:33;8.20;99.90
44170;DHT22;29836;52.286;9.576;2024-02-04T06:52:59;8.20;99.90
44170;DHT22;29836;52.286;9.576;2024-02-04T06:55:24;8.20;99.90
44170;DHT22;29836;52.286;9.576;2024-02-04T06:57:50;8.20;99.90
44170;DHT22;29836;52.286;9.576;2024-02-04T07:00:16;8.30;99.90
44170;DHT22;29836;52.286;9.576;2024-02-04T07:02:41;8.30;99.90
44170;DHT22;29836;52.286;9.576;2024-02-04T07:05:07;8.30;99.90
44170;DHT22;29836;52.286;9.576;2024-02-04T07:07:33;8.30;99.90
44170;DHT22;29836;52.286;9.576;2024-02-04T07:09:59;8.30;99.90
44170;DHT22;29836;52.286;9.576;2024-02-04T07:12:24;8.30;99.90
44170;DHT22;29836;52.286;9.576;2024-02-04T07:14:50;8.30;99.90
44170;DHT22;29836;52.286;9.576;2024-02-04T07:17:15;8.30;99.90
44170;DHT22;29836;52.286;9.576;2024-02-04T07:19:41;8.30;99.90
44170;DHT22;29836;52.286;9.576;2024-02-04T07:22:06;8.30;99.90
44170;DHT22;29836;52.286;9.576;2024-02-04T07:24:32;8.40;99.90
44170;DHT22;29836;52.286;9.576;2024-02-04T07:26:58;8.40;99.90
44170;DHT22;29836;52.286;9.576;2024-02-04T07:29:23;8.40;99.90
44170;DHT22;29836;52.286;9.576;2024-02-04T07:31:49;8.40;99.90
44170;DHT22;29836;52.286;9.576;2024-02-04T07:34:14;8.40;99.90
44170;DHT22;29836;52.286;9.576;2024-02-04T07:36:40;8.40;99.90
44170;DHT22;29836;52.286;9.576;2024-02-04T07:39:05;8.40;99.90
44170;DHT22;29836;52.286;9.576;2024-02-04T07:41:31;8.40;99.90
44170;DHT22;29836;52.286;9.576;2024-02-04T07:43:57;8.50;99.90
44170;DHT22;29836;52.286;9.576;2024-02-04T07:46:23;8.50;99.90
44170;DHT22;29836;52.286;9.576;2024-02-04T07:48:48;8.50;99.90
44170;DHT22;29836;52.286;9.576;2024-02-04T07:51:14;8.50;99.90
44170;DHT22;29836;52.286;9.576;2024-02-04T07:53:39;8.60;99.90
44170;DHT22;29836;52.286;9.576;2024-02-04T07:56:05;8.60;99.90
44170;DHT22;29836;52.286;9.576;2024-02-04T07:58:32;8.60;99.90
44170;DHT22;29836;52.286;9.576;2024-02-04T08:00:58;8.60;99.90
44170;DHT22;29836;52.286;9.576;2024-02-04T08:03:23;8.60;99.90
44170;DHT22;29836;52.286;9.576;2024-02-04T08:05:49;8.60;99.90
44170;DHT22;29836;52.286;9.576;2024-02-04T08:08:14;8.60;99.90
44170;DHT22;29836;52.286;9.576;2024-02-04T08:10:40;8.60;99.90
44170;DHT22;29836;52.286;9.576;2024-02-04T08:13:05;8.60;99.90
44170;DHT22;29836;52.286;9.576;2024-02-04T08:15:31;8.60;99.90
44170;DHT22;29836;52.286;9.576;2024-02-04T08:17:57;8.60;99.90
44170;DHT22;29836;52.286;9.576;2024-02-04T08:20:23;8.60;99.90
44170;DHT22;29836;52.286;9.576;2024-02-04T08:22:48;8.60;99.90
44170;DHT22;29836;52.286;9.576;2024-02-04T08:25:14;8.60;99.90
44170;DHT22;29836;52.286;9.576;2024-02-04T08:27:39;8.60;99.90
44170;DHT22;29836;52.286;9.576;2024-02-04T08:30:06;8.60;99.90
44170;DHT22;29836;52.286;9.576;2024-02-04T08:32:31;8.60;99.90
44170;DHT22;29836;52.286;9.576;2024-02-04T08:34:57;8.60;99.90
44170;DHT22;29836;52.286;9.576;2024-02-04T08:37:22;8.60;99.90
44170;DHT22;29836;52.286;9.576;2024-02-04T08:39:48;8.60;99.90
44170;DHT22;29836;52.286;9.576;2024-02-04T08:42:14;8.60;99.90
44170;DHT22;29836;52.286;9.576;2024-02-04T08:44:40;8.60;99.90
44170;DHT22;29836;52.286;9.576;2024-02-04T08:47:06;8.60;99.90
44170;DHT22;29836;52.286;9.576;2024-02-04T08:49:35;8.70;99.90
44170;DHT22;29836;52.286;9.576;2024-02-04T08:52:01;8.70;99.90
44170;DHT22;29836;52.286;9.576;2024-02-04T08:54:26;8.70;99.90
44170;DHT22;29836;52.286;9.576;2024-02-04T08:56:52;8.70;99.90
44170;DHT22;29836;52.286;9.576;2024-02-04T08:59:18;8.80;99.90
44170;DHT22;29836;52.286;9.576;2024-02-04T09:01:43;8.80;99.90
44170;DHT22;29836;52.286;9.576;2024-02-04T09:04:09;8.80;99.90
44170;DHT22;29836;52.286;9.576;2024-02-04T09:06:34;8.80;99.90
44170;DHT22;29836;52.286;9.576;2024-02-04T09:09:00;8.80;99.90
44170;DHT22;29836;52.286;9.576;2024-02-04T09:11:26;8.80;99.90
44170;DHT22;29836;52.286;9.576;2024-02-04T09:13:51;8.80;99.90
44170;DHT22;29836;52.286;9.576;2024-02-04T09:16:17;8.70;99.90
44170;DHT22;29836;52.286;9.576;2024-02-04T09:18:42;8.80;99.90
44170;DHT22;29836;52.286;9.576;2024-02-04T09:21:08;8.80;99.90
44170;DHT22;29836;52.286;9.576;2024-02-04T09:23:34;8.80;99.90
44170;DHT22;29836;52.286;9.576;2024-02-04T09:25:59;8.70;99.90
44170;DHT22;29836;52.286;9.576;2024-02-04T09:28:25;8.70;99.90
44170;DHT22;29836;52.286;9.576;2024-02-04T09:30:50;8.60;99.90
44170;DHT22;29836;52.286;9.576;2024-02-04T09:33:16;8.60;99.90
44170;DHT22;29836;52.286;9.576;2024-02-04T09:35:42;8.60;99.90
44170;DHT22;29836;52.286;9.576;2024-02-04T09:38:07;8.60;99.90
44170;DHT22;29836;52.286;9.576;2024-02-04T09:40:33;8.70;99.90
44170;DHT22;29836;52.286;9.576;2024-02-04T09:43:00;8.70;99.90
44170;DHT22;29836;52.286;9.576;2024-02-04T09:45:26;8.60;99.90
44170;DHT22;29836;52.286;9.576;2024-02-04T09:47:53;8.70;99.90
44170;DHT22;29836;52.286;9.576;2024-02-04T09:50:20;8.70;99.90
44170;DHT22;29836;52.286;9.576;2024-02-04T09:52:49;8.70;99.90
44170;DHT22;29836;52.286;9.576;2024-02-04T09:55:20;8.80;99.90
44170;DHT22;29836;52.286;9.576;2024-02-04T09:57:47;8.80;99.90
44170;DHT22;29836;52.286;9.576;2024-02-04T10:00:13;8.80;99.90
44170;DHT22;29836;52.286;9.576;2024-02-04T10:02:40;8.80;99.90
44170;DHT22;29836;52.286;9.576;2024-02-04T10:05:06;8.90;99.90
44170;DHT22;29836;52.286;9.576;2024-02-04T10:07:34;8.90;99.90
44170;DHT22;29836;52.286;9.576;2024-02-04T10:10:00;8.90;99.90
44170;DHT22;29836;52.286;9.576;2024-02-04T10:12:26;9.00;99.90
44170;DHT22;29836;52.286;9.576;2024-02-04T10:14:51;9.00;99.90
44170;DHT22;29836;52.286;9.576;2024-02-04T10:17:17;9.00;99.90
44170;DHT22;29836;52.286;9.576;2024-02-04T10:19:47;9.00;99.90
44170;DHT22;29836;52.286;9.576;2024-02-04T10:22:14;9.00;99.90
44170;DHT22;29836;52.286;9.576;2024-02-04T10:24:39;9.00;99.90
44170;DHT22;29836;52.286;9.576;2024-02-04T10:27:05;9.10;99.90
44170;DHT22;29836;52.286;9.576;2024-02-04T10:29:31;9.10;99.90
44170;DHT22;29836;52.286;9.576;2024-02-04T10:31:56;9.10;99.90
44170;DHT22;29836;52.286;9.576;2024-02-04T10:34:25;9.20;99.90
44170;DHT22;29836;52.286;9.576;2024-02-04T10:36:51;9.20;99.90
44170;DHT22;29836;52.286;9.576;2024-02-04T10:39:16;9.30;99.90
44170;DHT22;29836;52.286;9.576;2024-02-04T10:41:49;9.30;99.90
44170;DHT22;29836;52.286;9.576;2024-02-04T10:44:21;9.40;99.90
44170;DHT22;29836;52.286;9.576;2024-02-04T10:46:49;9.50;99.90
44170;DHT22;29836;52.286;9.576;2024-02-04T10:49:15;9.60;99.90
44170;DHT22;29836;52.286;9.576;2024-02-04T10:51:41;9.60;99.90
44170;DHT22;29836;52.286;9.576;2024-02-04T10:54:07;9.70;99.90
44170;DHT22;29836;52.286;9.576;2024-02-04T10:56:44;9.70;99.90
44170;DHT22;29836;52.286;9.576;2024-02-04T10:59:10;9.80;99.90
44170;DHT22;29836;52.286;9.576;2024-02-04T11:01:38;9.80;99.90
44170;DHT22;29836;52.286;9.576;2024-02-04T11:04:05;9.80;99.90
44170;DHT22;29836;52.286;9.576;2024-02-04T11:06:32;9.80;99.90
44170;DHT22;29836;52.286;9.576;2024-02-04T11:08:58;9.70;99.90
44170;DHT22;29836;52.286;9.576;2024-02-04T11:11:26;9.80;99.90
44170;DHT22;29836;52.286;9.576;2024-02-04T11:13:56;9.70;99.90
44170;DHT22;29836;52.286;9.576;2024-02-04T11:16:40;9.80;99.90
44170;DHT22;29836;52.286;9.576;2024-02-04T11:19:46;9.90;99.90
44170;DHT22;29836;52.286;9.576;2024-02-04T11:28:04;9.80;99.90
44170;DHT22;29836;52.286;9.576;2024-02-04T11:30:33;9.80;99.90
44170;DHT22;29836;52.286;9.576;2024-02-04T11:33:11;9.60;99.90
44170;DHT22;29836;52.286;9.576;2024-02-04T11:35:36;9.60;99.90
44170;DHT22;29836;52.286;9.576;2024-02-04T11:38:05;9.60;99.90
44170;DHT22;29836;52.286;9.576;2024-02-04T11:40:35;9.70;99.90
44170;DHT22;29836;52.286;9.576;2024-02-04T11:43:11;9.70;99.90
44170;DHT22;29836;52.286;9.576;2024-02-04T11:45:41;9.70;99.90
44170;DHT22;29836;52.286;9.576;2024-02-04T11:48:08;9.80;99.90
44170;DHT22;29836;52.286;9.576;2024-02-04T11:50:34;9.90;99.90
44170;DHT22;29836;52.286;9.576;2024-02-04T11:53:09;9.80;99.90
44170;DHT22;29836;52.286;9.576;2024-02-04T11:55:36;9.80;99.90
44170;DHT22;29836;52.286;9.576;2024-02-04T11:58:04;9.80;99.90
44170;DHT22;29836;52.286;9.576;2024-02-04T12:00:32;9.70;99.90
44170;DHT22;29836;52.286;9.576;2024-02-04T12:03:06;9.60;99.90
44170;DHT22;29836;52.286;9.576;2024-02-04T12:05:33;9.50;99.90
44170;DHT22;29836;52.286;9.576;2024-02-04T12:08:03;9.50;99.90
44170;DHT22;29836;52.286;9.576;2024-02-04T12:10:34;9.50;99.90
44170;DHT22;29836;52.286;9.576;2024-02-04T12:13:02;9.40;99.90
44170;DHT22;29836;52.286;9.576;2024-02-04T12:15:29;9.40;99.90
44170;DHT22;29836;52.286;9.576;2024-02-04T12:17:55;9.40;99.90
44170;DHT22;29836;52.286;9.576;2024-02-04T12:20:21;9.50;99.90
44170;DHT22;29836;52.286;9.576;2024-02-04T12:22:46;9.50;99.90
44170;DHT22;29836;52.286;9.576;2024-02-04T12:25:14;9.50;99.90
44170;DHT22;29836;52.286;9.576;2024-02-04T12:27:40;9.50;99.90
44170;DHT22;29836;52.286;9.576;2024-02-04T12:30:07;9.50;99.90
44170;DHT22;29836;52.286;9.576;2024-02-04T12:32:34;9.60;99.90
44170;DHT22;29836;52.286;9.576;2024-02-04T12:35:00;9.60;99.90
44170;DHT22;29836;52.286;9.576;2024-02-04T12:37:26;9.60;99.90
44170;DHT22;29836;52.286;9.576;2024-02-04T12:39:52;9.50;99.90
44170;DHT22;29836;52.286;9.576;2024-02-04T12:42:17;9.50;99.90
44170;DHT22;29836;52.286;9.576;2024-02-04T12:44:46;9.50;99.90
44170;DHT22;29836;52.286;9.576;2024-02-04T12:47:12;9.40;99.90
44170;DHT22;29836;52.286;9.576;2024-02-04T12:49:38;9.40;99.90
44170;DHT22;29836;52.286;9.576;2024-02-04T12:52:05;9.40;99.90
44170;DHT22;29836;52.286;9.576;2024-02-04T12:54:31;9.30;99.90
44170;DHT22;29836;52.286;9.576;2024-02-04T12:57:05;9.30;99.90
44170;DHT22;29836;52.286;9.576;2024-02-04T12:59:32;9.30;99.90
44170;DHT22;29836;52.286;9.576;2024-02-04T13:02:04;9.30;99.90
44170;DHT22;29836;52.286;9.576;2024-02-04T13:04:41;9.30;99.90
44170;DHT22;29836;52.286;9.576;2024-02-04T13:07:12;9.30;99.90
44170;DHT22;29836;52.286;9.576;2024-02-04T13:09:40;9.20;99.90
44170;DHT22;29836;52.286;9.576;2024-02-04T13:12:07;9.30;99.90
44170;DHT22;29836;52.286;9.576;2024-02-04T13:14:39;9.20;99.90
44170;DHT22;29836;52.286;9.576;2024-02-04T13:17:05;9.30;99.90
44170;DHT22;29836;52.286;9.576;2024-02-04T13:19:35;9.30;99.90
44170;DHT22;29836;52.286;9.576;2024-02-04T13:22:02;9.30;99.90
44170;DHT22;29836;52.286;9.576;2024-02-04T13:24:32;9.20;99.90
44170;DHT22;29836;52.286;9.576;2024-02-04T13:26:58;9.20;99.90
44170;DHT22;29836;52.286;9.576;2024-02-04T13:29:26;9.10;99.90
44170;DHT22;29836;52.286;9.576;2024-02-04T13:31:52;9.20;99.90
44170;DHT22;29836;52.286;9.576;2024-02-04T13:34:17;9.20;99.90
44170;DHT22;29836;52.286;9.576;2024-02-04T13:36:43;9.10;99.90
44170;DHT22;29836;52.286;9.576;2024-02-04T13:39:09;9.10;99.90
44170;DHT22;29836;52.286;9.576;2024-02-04T13:41:35;9.10;99.90
44170;DHT22;29836;52.286;9.576;2024-02-04T13:44:01;9.10;99.90
44170;DHT22;29836;52.286;9.576;2024-02-04T13:46:27;9.00;99.90
44170;DHT22;29836;52.286;9.576;2024-02-04T13:48:52;9.00;99.90
44170;DHT22;29836;52.286;9.576;2024-02-04T13:51:21;8.90;99.90
44170;DHT22;29836;52.286;9.576;2024-02-04T13:53:49;8.90;99.90
44170;DHT22;29836;52.286;9.576;2024-02-04T13:56:15;9.00;99.90
44170;DHT22;29836;52.286;9.576;2024-02-04T13:58:45;8.90;99.90
44170;DHT22;29836;52.286;9.576;2024-02-04T14:01:12;8.90;99.90
44170;DHT22;29836;52.286;9.576;2024-02-04T14:03:38;8.90;99.90
44170;DHT22;29836;52.286;9.576;2024-02-04T14:06:04;8.90;99.90
44170;DHT22;29836;52.286;9.576;2024-02-04T14:08:30;8.90;99.90
44170;DHT22;29836;52.286;9.576;2024-02-04T14:10:57;8.90;99.90
44170;DHT22;29836;52.286;9.576;2024-02-04T14:13:23;9.00;99.90
44170;DHT22;29836;52.286;9.576;2024-02-04T14:15:50;9.00;99.90
44170;DHT22;29836;52.286;9.576;2024-02-04T14:18:18;9.00;99.90
44170;DHT22;29836;52.286;9.576;2024-02-04T14:20:43;9.00;99.90
44170;DHT22;29836;52.286;9.576;2024-02-04T14:23:09;9.00;99.90
44170;DHT22;29836;52.286;9.576;2024-02-04T14:25:34;9.00;99.90
44170;DHT22;29836;52.286;9.576;2024-02-04T14:28:00;9.10;99.90
44170;DHT22;29836;52.286;9.576;2024-02-04T14:30:26;9.10;99.90
44170;DHT22;29836;52.286;9.576;2024-02-04T14:32:52;9.10;99.90
44170;DHT22;29836;52.286;9.576;2024-02-04T14:35:17;9.10;99.90
44170;DHT22;29836;52.286;9.576;2024-02-04T14:37:43;9.10;99.90
44170;DHT22;29836;52.286;9.576;2024-02-04T14:40:10;9.10;99.90
44170;DHT22;29836;52.286;9.576;2024-02-04T14:42:35;9.10;99.90
44170;DHT22;29836;52.286;9.576;2024-02-04T14:45:01;9.10;99.90
44170;DHT22;29836;52.286;9.576;2024-02-04T14:47:27;9.10;99.90
44170;DHT22;29836;52.286;9.576;2024-02-04T14:49:53;9.10;99.90
44170;DHT22;29836;52.286;9.576;2024-02-04T14:52:19;9.10;99.90
44170;DHT22;29836;52.286;9.576;2024-02-04T14:54:45;9.00;99.90
44170;DHT22;29836;52.286;9.576;2024-02-04T14:57:10;9.00;99.90
44170;DHT22;29836;52.286;9.576;2024-02-04T14:59:36;9.00;99.90
44170;DHT22;29836;52.286;9.576;2024-02-04T15:02:04;9.10;99.90
44170;DHT22;29836;52.286;9.576;2024-02-04T15:04:31;9.00;99.90
44170;DHT22;29836;52.286;9.576;2024-02-04T15:06:57;9.10;99.90
44170;DHT22;29836;52.286;9.576;2024-02-04T15:09:23;9.00;99.90
44170;DHT22;29836;52.286;9.576;2024-02-04T15:11:49;9.00;99.90
44170;DHT22;29836;52.286;9.576;2024-02-04T15:14:15;9.10;99.90
44170;DHT22;29836;52.286;9.576;2024-02-04T15:16:42;9.00;99.90
44170;DHT22;29836;52.286;9.576;2024-02-04T15:19:08;9.00;99.90
44170;DHT22;29836;52.286;9.576;2024-02-04T15:21:34;9.10;99.90
44170;DHT22;29836;52.286;9.576;2024-02-04T15:24:00;9.10;99.90
44170;DHT22;29836;52.286;9.576;2024-02-04T15:26:32;9.10;99.90
44170;DHT22;29836;52.286;9.576;2024-02-04T15:29:02;9.00;99.90
44170;DHT22;29836;52.286;9.576;2024-02-04T15:31:28;8.80;99.90
44170;DHT22;29836;52.286;9.576;2024-02-04T15:33:54;8.60;99.90
44170;DHT22;29836;52.286;9.576;2024-02-04T15:36:20;8.50;99.90
44170;DHT22;29836;52.286;9.576;2024-02-04T15:38:46;8.30;99.90
44170;DHT22;29836;52.286;9.576;2024-02-04T15:41:12;8.20;99.90
44170;DHT22;29836;52.286;9.576;2024-02-04T15:43:37;8.10;99.90
44170;DHT22;29836;52.286;9.576;2024-02-04T15:46:07;8.10;99.90
44170;DHT22;29836;52.286;9.576;2024-02-04T15:48:38;8.00;99.90
44170;DHT22;29836;52.286;9.576;2024-02-04T15:51:04;7.80;99.90